| time (UTC) | temp F | wind direction | speed MPH | gust MPH | rain 1hr in | rain 24hr in | rain mn in | humidity % | barometer mb |
| 20260504050205 | 57 | 215 | 8.0 | 8.0 | 0.00 | 0.00 | 0.00 | 65 | 1006.2 |
| 20260504045135 | 57 | 207 | 2.0 | 9.0 | 0.00 | 0.00 | 0.00 | 65 | 1006.0 |
| 20260504043135 | 57 | 211 | 4.0 | 11.0 | 0.00 | 0.00 | 0.00 | 65 | 1005.9 |
| 20260504042135 | 57 | 192 | 7.0 | 10.0 | 0.00 | 0.00 | 0.00 | 65 | 1006.0 |
| 20260504041205 | 58 | 180 | 5.0 | 10.0 | 0.00 | 0.00 | 0.00 | 64 | 1005.9 |
| 20260504040135 | 57 | 155 | 4.0 | 9.0 | 0.00 | 0.00 | 0.00 | 65 | 1005.9 |
| 20260504035136 | 58 | 163 | 5.0 | 10.0 | 0.00 | 0.00 | 0.00 | 64 | 1005.8 |
| 20260504034135 | 58 | 153 | 7.0 | 11.0 | 0.00 | 0.00 | 0.00 | 63 | 1005.9 |
| 20260504032135 | 59 | 171 | 7.0 | 11.0 | 0.00 | 0.00 | 0.00 | 63 | 1006.1 |
| 20260504031135 | 59 | 180 | 5.0 | 10.0 | 0.00 | 0.00 | 0.00 | 63 | 1006.1 |
| 20260504030135 | 59 | 151 | 4.0 | 9.0 | 0.00 | 0.00 | 0.00 | 62 | 1006.1 |
| 20260504025205 | 59 | 173 | 6.0 | 10.0 | 0.00 | 0.00 | 0.00 | 62 | 1006.2 |
| 20260504024135 | 59 | 178 | 3.0 | 8.0 | 0.00 | 0.00 | 0.00 | 62 | 1006.2 |
| 20260504023135 | 59 | 157 | 7.0 | 8.0 | 0.00 | 0.00 | 0.00 | 61 | 1006.2 |
| 20260504022135 | 60 | 171 | 6.0 | 7.0 | 0.00 | 0.00 | 0.00 | 59 | 1006.2 |
| 20260504021135 | 60 | 173 | 4.0 | 7.0 | 0.00 | 0.00 | 0.00 | 59 | 1006.1 |
| 20260504020135 | 62 | 161 | 3.0 | 7.0 | 0.00 | 0.00 | 0.00 | 56 | 1006.2 |
| 20260504015135 | 61 | 183 | 4.0 | 8.0 | 0.00 | 0.00 | 0.00 | 56 | 1006.0 |
| 20260504014135 | 62 | 215 | 4.0 | 8.0 | 0.00 | 0.00 | 0.00 | 56 | 1006.0 |
| 20260504013135 | 62 | 226 | 5.0 | 12.0 | 0.00 | 0.00 | 0.00 | 55 | 1006.0 |
| 20260504012205 | 62 | 204 | 7.0 | 7.0 | 0.00 | 0.00 | 0.00 | 54 | 1005.9 |
| 20260504011135 | 63 | 207 | 2.0 | 8.0 | 0.00 | 0.00 | 0.00 | 54 | 1005.8 |
| 20260504010135 | 63 | 202 | 2.0 | 8.0 | 0.00 | 0.00 | 0.00 | 52 | 1005.6 |
| 20260504005135 | 64 | 184 | 3.0 | 8.0 | 0.00 | 0.00 | 0.00 | 52 | 1005.6 |
| 20260504004135 | 64 | 203 | 6.0 | 8.0 | 0.00 | 0.00 | 0.00 | 51 | 1005.6 |
| 20260504003135 | 65 | 219 | 3.0 | 9.0 | 0.00 | 0.00 | 0.00 | 49 | 1005.7 |
| 20260504001135 | 66 | 220 | 3.0 | 13.0 | 0.00 | 0.00 | 0.00 | 47 | 1005.7 |
| 20260504000135 | 67 | 284 | 3.0 | 16.0 | 0.00 | 0.00 | 0.00 | 46 | 1005.9 |
| 20260503235135 | 67 | 252 | 7.0 | 13.0 | 0.00 | 0.00 | 0.00 | 47 | 1005.9 |
| 20260503233135 | 67 | 291 | 5.0 | 17.0 | 0.00 | 0.00 | 0.00 | 45 | 1005.8 |
| 20260503232135 | 68 | 254 | 10.0 | 16.0 | 0.00 | 0.00 | 0.00 | 44 | 1005.9 |
| 20260503231135 | 68 | 204 | 6.0 | 16.0 | 0.00 | 0.00 | 0.00 | 45 | 1006.1 |
| 20260503230135 | 68 | 250 | 6.0 | 15.0 | 0.00 | 0.00 | 0.00 | 44 | 1006.1 |
| 20260503225135 | 68 | 244 | 11.0 | 17.0 | 0.00 | 0.00 | 0.00 | 45 | 1006.2 |
| 20260503224135 | 68 | 210 | 7.0 | 19.0 | 0.00 | 0.00 | 0.00 | 44 | 1006.3 |
| 20260503223135 | 68 | 219 | 13.0 | 19.0 | 0.00 | 0.00 | 0.00 | 44 | 1006.3 |
| 20260503222135 | 68 | 188 | 8.0 | 17.0 | 0.00 | 0.00 | 0.00 | 42 | 1006.3 |
| 20260503221135 | 68 | 225 | 9.0 | 18.0 | 0.00 | 0.00 | 0.00 | 42 | 1006.2 |
| 20260503215135 | 68 | 180 | 5.0 | 21.0 | 0.00 | 0.00 | 0.00 | 46 | 1006.4 |
| 20260503214135 | 67 | 190 | 9.0 | 22.0 | 0.00 | 0.00 | 0.00 | 44 | 1006.3 |
| 20260503213135 | 67 | 217 | 14.0 | 20.0 | 0.00 | 0.00 | 0.00 | 44 | 1006.5 |
| 20260503212135 | 67 | 218 | 16.0 | 22.0 | 0.00 | 0.00 | 0.00 | 46 | 1006.7 |
| 20260503211135 | 67 | 177 | 15.0 | 25.0 | 0.00 | 0.00 | 0.00 | 46 | 1006.8 |
| 20260503210135 | 66 | 227 | 15.0 | 27.0 | 0.00 | 0.00 | 0.00 | 45 | 1007.1 |
| 20260503205135 | 65 | 186 | 8.0 | 26.0 | 0.00 | 0.00 | 0.00 | 49 | 1007.2 |
| 20260503204135 | 65 | 182 | 21.0 | 31.0 | 0.00 | 0.00 | 0.00 | 45 | 1007.6 |
| 20260503203135 | 64 | 172 | 17.0 | 30.0 | 0.00 | 0.00 | 0.00 | 46 | 1007.6 |
| 20260503202135 | 64 | 185 | 17.0 | 30.0 | 0.00 | 0.00 | 0.00 | 46 | 1007.9 |
| 20260503201205 | 63 | 186 | 10.0 | 20.0 | 0.00 | 0.00 | 0.00 | 47 | 1008.0 |
| 20260503200135 | 63 | 163 | 8.0 | 25.0 | 0.00 | 0.00 | 0.00 | 48 | 1008.2 |
| 20260503195135 | 62 | 204 | 12.0 | 32.0 | 0.00 | 0.00 | 0.00 | 49 | 1008.5 |
| 20260503194134 | 62 | 196 | 32.0 | 32.0 | 0.00 | 0.00 | 0.00 | 52 | 1008.5 |
| 20260503193134 | 62 | 175 | 11.0 | 30.0 | 0.00 | 0.00 | 0.00 | 55 | 1008.8 |
| 20260503192135 | 62 | 157 | 16.0 | 26.0 | 0.00 | 0.00 | 0.00 | 56 | 1009.1 |
| 20260503191135 | 61 | 178 | 14.0 | 31.0 | 0.00 | 0.00 | 0.00 | 56 | 1009.3 |
| 20260503190135 | 61 | 184 | 12.0 | 30.0 | 0.00 | 0.00 | 0.00 | 55 | 1009.2 |
| 20260503185135 | 60 | 135 | 13.0 | 29.0 | 0.00 | 0.00 | 0.00 | 55 | 1008.9 |
| 20260503184135 | 60 | 146 | 22.0 | 33.0 | 0.00 | 0.00 | 0.00 | 53 | 1009.1 |
| 20260503183135 | 60 | 126 | 20.0 | 31.0 | 0.00 | 0.00 | 0.00 | 52 | 1009.3 |
| 20260503182134 | 60 | 146 | 16.0 | 28.0 | 0.00 | 0.00 | 0.00 | 53 | 1009.4 |
| 20260503181134 | 59 | 148 | 14.0 | 36.0 | 0.00 | 0.00 | 0.00 | 55 | 1009.7 |
| 20260503175134 | 59 | 132 | 16.0 | 26.0 | 0.00 | 0.00 | 0.00 | 56 | 1010.2 |
| 20260503174134 | 58 | 100 | 16.0 | 23.0 | 0.00 | 0.00 | 0.00 | 60 | 1010.2 |
| 20260503173135 | 57 | 153 | 10.0 | 26.0 | 0.00 | 0.00 | 0.00 | 63 | 1010.4 |
| 20260503172135 | 58 | 142 | 9.0 | 28.0 | 0.00 | 0.00 | 0.00 | 60 | 1010.7 |
| 20260503170135 | 56 | 173 | 12.0 | 27.0 | 0.00 | 0.00 | 0.00 | 65 | 1011.2 |
| 20260503160134 | 51 | 159 | 7.0 | 17.0 | 0.00 | 0.00 | 0.00 | 77 | 1012.4 |
| 20260503150134 | 52 | 192 | 16.0 | 25.0 | 0.00 | 0.00 | 0.00 | 64 | 1013.4 |
| 20260503140134 | 51 | 239 | 10.0 | 17.0 | 0.00 | 0.00 | 0.00 | 64 | 1013.3 |
| 20260503131134 | 50 | 171 | 3.0 | 15.0 | 0.00 | 0.00 | 0.00 | 61 | 1014.1 |
| 20260503130134 | 49 | 207 | 8.0 | 16.0 | 0.00 | 0.00 | 0.00 | 62 | 1014.0 |
| 20260503120134 | 47 | 197 | 8.0 | 14.0 | 0.00 | 0.00 | 0.00 | 66 | 1014.1 |
| 20260503110134 | 46 | 202 | 5.0 | 9.0 | 0.00 | 0.00 | 0.00 | 65 | 1013.8 |
| 20260503100134 | 46 | 208 | 5.0 | 13.0 | 0.00 | 0.00 | 0.00 | 62 | 1014.0 |
| 20260503081134 | 45 | 182 | 5.0 | 9.0 | 0.00 | 0.00 | 0.00 | 59 | 1014.7 |
| 20260503080134 | 45 | 183 | 6.0 | 10.0 | 0.00 | 0.00 | 0.00 | 58 | 1014.7 |
| 20260503072134 | 47 | 207 | 7.0 | 11.0 | 0.00 | 0.00 | 0.00 | 53 | 1014.9 |
| 20260503071134 | 48 | 189 | 3.0 | 15.0 | 0.00 | 0.00 | 0.00 | 52 | 1015.0 |
| 20260503070134 | 48 | 208 | 4.0 | 9.0 | 0.00 | 0.00 | 0.00 | 52 | 1015.1 |
| 20260503060134 | 47 | 165 | 5.0 | 10.0 | 0.00 | 0.00 | 0.00 | 54 | 1015.6 |
| 20260503053134 | 46 | 183 | 7.0 | 10.0 | 0.00 | 0.00 | 0.00 | 55 | 1015.8 |